Time;durP1;ratioP1;P1;durP2;ratioP2;P2;SDS_P1;SDS_P2;PMS_P1;PMS_P2;Temp;Humidity;BMP_temperature;BMP_pressure;BME280_temperature;BME280_humidity;BME280_pressure;Samples;Min_cycle;Max_cycle;Signal;HPM_P1;HPM_P2
2021/09/04 00:02:06;;;;;;;;;;;18.00;54.10;;;;;;4338843;33;19990;-40
2021/09/04 00:04:32;;;;;;;;;;;18.10;54.20;;;;;;4331731;33;19967;-42
2021/09/04 00:06:58;;;;;;;;;;;18.10;54.20;;;;;;4313212;33;19975;-40
2021/09/04 00:09:24;;;;;;;;;;;18.10;54.40;;;;;;4313315;33;19967;-41
2021/09/04 00:11:50;;;;;;;;;;;18.20;54.50;;;;;;4316762;33;20050;-41
2021/09/04 00:14:17;;;;;;;;;;;18.30;54.50;;;;;;4328245;33;20043;-40
2021/09/04 00:16:43;;;;;;;;;;;18.30;54.40;;;;;;4328219;33;20125;-41
2021/09/04 00:19:09;;;;;;;;;;;18.30;54.30;;;;;;4328064;33;19975;-39
2021/09/04 00:21:35;;;;;;;;;;;18.30;54.20;;;;;;4315669;33;19978;-40
2021/09/04 00:24:01;;;;;;;;;;;18.40;54.30;;;;;;4327780;33;19965;-42
2021/09/04 00:26:28;;;;;;;;;;;18.30;54.20;;;;;;4315744;33;19999;-42
2021/09/04 00:28:54;;;;;;;;;;;18.40;54.20;;;;;;4328204;33;19987;-43
2021/09/04 00:31:20;;;;;;;;;;;18.30;54.10;;;;;;4315583;33;20524;-49
2021/09/04 00:33:46;;;;;;;;;;;18.30;54.10;;;;;;4327758;33;20402;-43
2021/09/04 00:36:12;;;;;;;;;;;18.40;54.10;;;;;;4327990;33;19990;-43
2021/09/04 00:38:39;;;;;;;;;;;18.30;53.90;;;;;;4329722;33;20005;-39
2021/09/04 00:41:05;;;;;;;;;;;18.30;53.90;;;;;;4330186;33;20111;-44
2021/09/04 00:43:31;;;;;;;;;;;18.20;54.50;;;;;;4354594;32;20135;-42
2021/09/04 00:46:10;;;;;;;;;;;18.20;53.90;;;;;;4359812;32;20128;-43
2021/09/04 00:48:36;;;;;;;;;;;18.20;54.50;;;;;;4360109;32;19959;-42
2021/09/04 00:51:02;;;;;;;;;;;18.10;53.70;;;;;;4359527;32;20096;-44
2021/09/04 00:53:28;;;;;;;;;;;18.10;53.80;;;;;;4359774;32;19970;-43
2021/09/04 00:55:55;;;;;;;;;;;18.00;53.60;;;;;;4359322;32;20025;-42
2021/09/04 00:58:21;;;;;;;;;;;18.00;53.60;;;;;;4359377;32;19965;-45
2021/09/04 01:00:54;;;;;;;;;;;18.00;53.70;;;;;;4345760;32;19977;-45
2021/09/04 01:03:20;;;;;;;;;;;17.80;53.60;;;;;;4359601;32;19997;-43
2021/09/04 01:05:49;;;;;;;;;;;17.90;53.60;;;;;;4359623;32;19958;-41
2021/09/04 01:08:16;;;;;;;;;;;17.80;53.60;;;;;;4359154;32;20374;-44
2021/09/04 01:10:42;;;;;;;;;;;17.70;53.50;;;;;;4345401;32;19985;-43
2021/09/04 01:13:09;;;;;;;;;;;17.70;53.60;;;;;;4359502;32;19969;-44
2021/09/04 01:15:36;;;;;;;;;;;17.60;53.50;;;;;;4345520;32;19982;-43
2021/09/04 01:18:03;;;;;;;;;;;17.60;53.50;;;;;;4358854;32;20055;-46
2021/09/04 01:20:30;;;;;;;;;;;17.50;53.50;;;;;;4359460;32;20004;-47
2021/09/04 01:22:56;;;;;;;;;;;17.50;53.50;;;;;;4358920;32;20072;-47
2021/09/04 01:25:24;;;;;;;;;;;17.40;53.50;;;;;;4356515;32;19970;-46
2021/09/04 01:27:51;;;;;;;;;;;17.40;53.40;;;;;;4344042;32;20422;-45
2021/09/04 01:30:17;;;;;;;;;;;17.30;53.30;;;;;;4356506;32;20475;-44
2021/09/04 01:32:43;;;;;;;;;;;17.30;53.40;;;;;;4356399;32;19981;-43
2021/09/04 01:35:11;;;;;;;;;;;17.20;53.50;;;;;;4356112;32;19970;-44
2021/09/04 01:37:37;;;;;;;;;;;17.20;53.50;;;;;;4356958;32;20091;-43
2021/09/04 01:40:12;;;;;;;;;;;17.20;53.50;;;;;;4356198;32;19978;-43
2021/09/04 01:42:39;;;;;;;;;;;17.10;53.50;;;;;;4342587;32;19974;-46
2021/09/04 01:45:05;;;;;;;;;;;17.10;53.60;;;;;;4327096;33;20062;-42
2021/09/04 01:47:31;;;;;;;;;;;17.10;53.60;;;;;;4326485;33;19982;-44
2021/09/04 01:49:57;;;;;;;;;;;17.00;53.60;;;;;;4314720;33;19966;-43
2021/09/04 01:52:24;;;;;;;;;;;16.90;53.80;;;;;;4326809;33;19974;-44
2021/09/04 01:54:50;;;;;;;;;;;16.80;54.00;;;;;;4326614;33;20049;-45
2021/09/04 01:57:17;;;;;;;;;;;16.80;54.10;;;;;;4341584;32;20064;-43
2021/09/04 01:59:43;;;;;;;;;;;16.70;54.30;;;;;;4329945;33;19982;-39
2021/09/04 02:02:09;;;;;;;;;;;16.70;54.60;;;;;;4343732;33;19996;-47
2021/09/04 02:04:35;;;;;;;;;;;16.60;54.80;;;;;;4343544;33;19986;-43
2021/09/04 02:07:02;;;;;;;;;;;16.60;55.10;;;;;;4343919;33;19982;-44
2021/09/04 02:09:28;;;;;;;;;;;16.50;55.30;;;;;;4344005;33;19977;-44
2021/09/04 02:11:54;;;;;;;;;;;16.50;55.50;;;;;;4343296;33;19983;-44
2021/09/04 02:14:20;;;;;;;;;;;16.50;55.60;;;;;;4344028;33;19961;-44
2021/09/04 02:16:46;;;;;;;;;;;16.40;55.70;;;;;;4343440;33;20415;-43
2021/09/04 02:19:12;;;;;;;;;;;16.40;56.30;;;;;;4343600;33;19958;-43
2021/09/04 02:21:39;;;;;;;;;;;16.40;56.40;;;;;;4311486;33;20015;-44
2021/09/04 02:24:05;;;;;;;;;;;16.40;56.50;;;;;;4311861;33;20002;-44
2021/09/04 02:26:31;;;;;;;;;;;16.40;57.00;;;;;;4299698;33;19979;-44
2021/09/04 02:28:58;;;;;;;;;;;16.40;57.20;;;;;;4299613;33;19985;-44
2021/09/04 02:31:24;;;;;;;;;;;16.40;57.40;;;;;;4311774;33;19982;-43
2021/09/04 02:33:54;;;;;;;;;;;16.40;57.80;;;;;;4311493;33;20458;-43
2021/09/04 02:36:20;;;;;;;;;;;16.40;58.10;;;;;;4311236;33;20450;-43
2021/09/04 02:38:47;;;;;;;;;;;16.50;58.20;;;;;;4311791;33;19978;-41
2021/09/04 02:41:13;;;;;;;;;;;16.50;58.00;;;;;;4299979;33;19983;-43
2021/09/04 02:43:39;;;;;;;;;;;16.60;57.90;;;;;;4324025;33;19998;-42
2021/09/04 02:46:05;;;;;;;;;;;16.70;57.90;;;;;;4327985;33;20648;-44
2021/09/04 02:48:32;;;;;;;;;;;16.80;58.00;;;;;;4328654;33;20013;-43
2021/09/04 02:50:58;;;;;;;;;;;16.90;57.80;;;;;;4329061;33;19982;-43
2021/09/04 02:53:24;;;;;;;;;;;17.00;57.50;;;;;;4340853;33;19982;-42
2021/09/04 02:55:50;;;;;;;;;;;17.10;56.90;;;;;;4343997;33;19970;-42
2021/09/04 02:58:16;;;;;;;;;;;17.30;56.80;;;;;;4343863;33;19974;-38
2021/09/04 03:00:42;;;;;;;;;;;17.40;55.90;;;;;;4331419;33;20056;-41
2021/09/04 03:03:09;;;;;;;;;;;17.60;55.00;;;;;;4343796;33;19979;-41
2021/09/04 03:05:35;;;;;;;;;;;17.80;54.50;;;;;;4343906;33;19993;-41
2021/09/04 03:08:02;;;;;;;;;;;18.00;54.20;;;;;;4343284;33;20059;-41
2021/09/04 03:10:28;;;;;;;;;;;18.30;53.50;;;;;;4343692;33;20013;-41
2021/09/04 03:12:55;;;;;;;;;;;18.50;53.50;;;;;;4343534;33;20107;-41
2021/09/04 03:15:21;;;;;;;;;;;18.80;53.30;;;;;;4343460;33;19975;-41
2021/09/04 03:17:47;;;;;;;;;;;19.20;53.40;;;;;;4343338;33;19983;-38
2021/09/04 03:20:14;;;;;;;;;;;19.50;52.70;;;;;;4332281;33;20048;-41
2021/09/04 03:22:40;;;;;;;;;;;19.80;51.70;;;;;;4332278;33;19959;-40
2021/09/04 03:25:06;;;;;;;;;;;20.00;50.50;;;;;;4345802;33;19971;-39
2021/09/04 03:27:33;;;;;;;;;;;20.10;49.60;;;;;;4346195;33;20469;-40
2021/09/04 03:29:59;;;;;;;;;;;20.10;48.70;;;;;;4345703;33;19978;-38
2021/09/04 03:32:25;;;;;;;;;;;20.00;48.40;;;;;;4345411;33;19979;-40
2021/09/04 03:34:52;;;;;;;;;;;20.10;48.60;;;;;;4345776;33;19963;-40
2021/09/04 03:37:19;;;;;;;;;;;20.10;48.10;;;;;;4345913;33;19993;-38
2021/09/04 03:39:45;;;;;;;;;;;20.20;47.80;;;;;;4346238;33;19978;-40
2021/09/04 03:42:11;;;;;;;;;;;20.30;48.20;;;;;;4345779;33;19970;-40
2021/09/04 03:44:37;;;;;;;;;;;20.40;47.80;;;;;;4345656;33;19965;-40
2021/09/04 03:47:04;;;;;;;;;;;20.50;47.90;;;;;;4345553;33;19971;-40
2021/09/04 03:49:30;;;;;;;;;;;20.60;47.70;;;;;;4345556;33;19971;-40
2021/09/04 03:51:56;;;;;;;;;;;20.80;47.20;;;;;;4345545;33;20009;-40
2021/09/04 03:54:22;;;;;;;;;;;20.90;46.40;;;;;;4345717;33;19971;-40
2021/09/04 03:56:48;;;;;;;;;;;21.00;46.60;;;;;;4345298;33;20007;-42
2021/09/04 03:59:15;;;;;;;;;;;21.10;46.60;;;;;;4345520;33;20040;-41
2021/09/04 04:01:41;;;;;;;;;;;21.30;46.00;;;;;;4345139;33;20056;-40
2021/09/04 04:04:07;;;;;;;;;;;21.40;45.50;;;;;;4344945;33;19974;-40
2021/09/04 04:06:33;;;;;;;;;;;21.50;45.10;;;;;;4345152;33;20472;-40
2021/09/04 04:08:59;;;;;;;;;;;21.70;45.20;;;;;;4345195;33;19970;-40
2021/09/04 04:11:26;;;;;;;;;;;21.80;44.50;;;;;;4345371;33;19959;-41
2021/09/04 04:13:53;;;;;;;;;;;21.80;43.70;;;;;;4341828;33;20446;-40
2021/09/04 04:16:19;;;;;;;;;;;21.90;43.60;;;;;;4345247;32;19986;-39
2021/09/04 04:18:45;;;;;;;;;;;21.90;42.70;;;;;;4345041;32;20051;-39
2021/09/04 04:21:11;;;;;;;;;;;21.90;42.70;;;;;;4345008;32;20459;-40
2021/09/04 04:23:38;;;;;;;;;;;22.00;43.30;;;;;;4344629;32;20386;-40
2021/09/04 04:26:04;;;;;;;;;;;22.10;41.60;;;;;;4345248;32;20491;-40
2021/09/04 04:28:31;;;;;;;;;;;22.00;41.60;;;;;;4345169;32;19984;-39
2021/09/04 04:30:57;;;;;;;;;;;22.10;41.80;;;;;;4345036;32;20055;-40
2021/09/04 04:33:23;;;;;;;;;;;22.20;42.10;;;;;;4345233;32;20383;-39
2021/09/04 04:35:49;;;;;;;;;;;22.30;42.20;;;;;;4344848;32;19971;-40
2021/09/04 04:38:15;;;;;;;;;;;22.50;42.20;;;;;;4344783;32;19966;-39
2021/09/04 04:40:41;;;;;;;;;;;22.70;41.20;;;;;;4344640;32;20423;-40
2021/09/04 04:43:08;;;;;;;;;;;22.80;41.10;;;;;;4354618;32;20042;-40
2021/09/04 04:45:34;;;;;;;;;;;22.90;41.10;;;;;;4359660;32;20043;-40
2021/09/04 04:48:00;;;;;;;;;;;23.00;40.70;;;;;;4359130;32;19974;-39
2021/09/04 04:50:26;;;;;;;;;;;23.00;40.70;;;;;;4359320;32;19969;-40
2021/09/04 04:52:53;;;;;;;;;;;23.00;41.30;;;;;;4359931;32;20399;-39
2021/09/04 04:55:19;;;;;;;;;;;23.10;40.70;;;;;;4359530;32;20031;-39
2021/09/04 04:57:45;;;;;;;;;;;22.90;39.70;;;;;;4359217;32;19981;-41
2021/09/04 05:00:12;;;;;;;;;;;22.60;40.30;;;;;;4345090;32;20047;-44
2021/09/04 05:02:39;;;;;;;;;;;22.30;40.90;;;;;;4299805;33;19971;-42
2021/09/04 05:05:06;;;;;;;;;;;22.00;41.50;;;;;;4312166;33;19987;-42
2021/09/04 05:07:33;;;;;;;;;;;21.70;41.90;;;;;;4312280;33;19982;-42
2021/09/04 05:10:00;;;;;;;;;;;21.30;42.60;;;;;;4312116;33;19979;-41
2021/09/04 05:12:26;;;;;;;;;;;21.10;43.40;;;;;;4299878;33;20054;-41
2021/09/04 05:14:52;;;;;;;;;;;20.80;44.00;;;;;;4312599;33;20005;-41
2021/09/04 05:17:18;;;;;;;;;;;20.60;44.60;;;;;;4312739;33;19980;-41
2021/09/04 05:19:44;;;;;;;;;;;20.40;45.10;;;;;;4312486;33;19995;-39
2021/09/04 05:22:11;;;;;;;;;;;20.40;45.70;;;;;;4312184;33;19982;-43
2021/09/04 05:24:37;;;;;;;;;;;20.30;46.10;;;;;;4312322;33;20023;-41
2021/09/04 05:27:03;;;;;;;;;;;20.30;46.30;;;;;;4312436;33;19983;-41
2021/09/04 05:29:30;;;;;;;;;;;20.30;47.00;;;;;;4312212;33;19974;-42
2021/09/04 05:31:56;;;;;;;;;;;20.40;46.40;;;;;;4312030;33;20475;-42
2021/09/04 05:34:22;;;;;;;;;;;20.40;46.30;;;;;;4349824;32;20040;-41
2021/09/04 05:36:49;;;;;;;;;;;20.60;46.80;;;;;;4345173;32;20062;-42
2021/09/04 05:39:15;;;;;;;;;;;20.80;46.50;;;;;;4359113;32;19978;-43
2021/09/04 05:41:41;;;;;;;;;;;21.00;45.40;;;;;;4357292;32;19973;-41
2021/09/04 05:44:07;;;;;;;;;;;21.00;45.10;;;;;;4343892;33;20005;-41
2021/09/04 05:46:34;;;;;;;;;;;21.00;44.60;;;;;;4343898;32;19963;-42
2021/09/04 05:49:00;;;;;;;;;;;20.80;45.00;;;;;;4311559;33;19982;-42
2021/09/04 05:51:26;;;;;;;;;;;20.70;45.20;;;;;;4312233;33;19986;-39
2021/09/04 05:53:52;;;;;;;;;;;20.60;45.20;;;;;;4311761;33;19974;-41
2021/09/04 05:56:18;;;;;;;;;;;20.50;45.80;;;;;;4311859;33;20104;-43
2021/09/04 05:58:44;;;;;;;;;;;20.30;46.20;;;;;;4311708;33;19983;-41
2021/09/04 06:01:11;;;;;;;;;;;20.10;46.10;;;;;;4312176;33;19987;-42
2021/09/04 06:03:37;;;;;;;;;;;19.90;46.80;;;;;;4311749;33;20467;-41
2021/09/04 06:06:03;;;;;;;;;;;19.80;47.30;;;;;;4311699;33;20496;-43
2021/09/04 06:08:29;;;;;;;;;;;19.60;47.90;;;;;;4311921;33;19974;-42
2021/09/04 06:10:56;;;;;;;;;;;19.40;48.00;;;;;;4311707;33;20097;-42
2021/09/04 06:13:22;;;;;;;;;;;19.30;48.30;;;;;;4311684;33;19987;-43
2021/09/04 06:15:48;;;;;;;;;;;19.20;48.70;;;;;;4312061;33;19998;-43
2021/09/04 06:18:14;;;;;;;;;;;19.10;49.00;;;;;;4311782;33;19987;-42
2021/09/04 06:20:40;;;;;;;;;;;19.00;49.10;;;;;;4336386;33;19989;-42
2021/09/04 06:23:07;;;;;;;;;;;19.00;49.10;;;;;;4342738;33;20037;-42
2021/09/04 06:25:34;;;;;;;;;;;18.80;49.30;;;;;;4343354;33;19981;-43
2021/09/04 06:28:00;;;;;;;;;;;18.70;49.80;;;;;;4343099;33;20053;-43
2021/09/04 06:30:26;;;;;;;;;;;18.70;50.10;;;;;;4343852;33;19969;-44
2021/09/04 06:32:53;;;;;;;;;;;18.60;50.20;;;;;;4343519;33;19974;-42
2021/09/04 06:35:19;;;;;;;;;;;18.60;50.50;;;;;;4343529;33;20010;-43
2021/09/04 06:37:45;;;;;;;;;;;18.60;50.50;;;;;;4342879;33;20378;-42
2021/09/04 06:40:11;;;;;;;;;;;18.60;50.40;;;;;;4343520;33;20083;-44
2021/09/04 06:42:38;;;;;;;;;;;18.60;50.40;;;;;;4350363;32;20040;-43
2021/09/04 06:45:04;;;;;;;;;;;18.60;50.50;;;;;;4357909;32;20019;-43
2021/09/04 06:47:31;;;;;;;;;;;18.60;50.50;;;;;;4344166;32;19962;-43
2021/09/04 06:49:57;;;;;;;;;;;18.50;50.70;;;;;;4358001;32;20020;-44
2021/09/04 06:52:23;;;;;;;;;;;18.50;50.70;;;;;;4358174;32;19965;-40
2021/09/04 06:54:49;;;;;;;;;;;18.50;51.00;;;;;;4358069;32;20079;-42
2021/09/04 06:57:15;;;;;;;;;;;18.50;51.30;;;;;;4358255;32;19969;-44
2021/09/04 06:59:41;;;;;;;;;;;18.40;51.40;;;;;;4357853;32;19967;-43
2021/09/04 07:02:08;;;;;;;;;;;18.40;51.70;;;;;;4357628;32;20087;-42
2021/09/04 07:04:34;;;;;;;;;;;18.40;51.90;;;;;;4357471;32;20052;-43
2021/09/04 07:07:04;;;;;;;;;;;18.30;52.10;;;;;;4357921;32;19982;-43
2021/09/04 07:09:31;;;;;;;;;;;18.40;52.40;;;;;;4358399;32;19970;-43
2021/09/04 07:11:57;;;;;;;;;;;18.40;52.10;;;;;;4358019;32;19970;-44
2021/09/04 07:14:23;;;;;;;;;;;18.40;52.40;;;;;;4344515;32;19963;-43
2021/09/04 07:16:50;;;;;;;;;;;18.40;52.30;;;;;;4357900;32;19966;-44
2021/09/04 07:19:16;;;;;;;;;;;18.50;52.30;;;;;;4357744;32;20001;-43
2021/09/04 07:21:42;;;;;;;;;;;18.60;52.20;;;;;;4358104;32;19969;-40
2021/09/04 07:24:08;;;;;;;;;;;18.60;51.50;;;;;;4357704;32;19981;-43
2021/09/04 07:26:34;;;;;;;;;;;18.70;51.60;;;;;;4357700;32;20010;-43
2021/09/04 07:29:01;;;;;;;;;;;18.70;51.80;;;;;;4358455;32;20058;-43
2021/09/04 07:31:27;;;;;;;;;;;18.80;51.70;;;;;;4358152;32;20407;-43
2021/09/04 07:33:53;;;;;;;;;;;18.90;51.40;;;;;;4360025;32;20060;-42
2021/09/04 07:36:19;;;;;;;;;;;19.00;51.40;;;;;;4360699;32;19993;-43
2021/09/04 07:38:45;;;;;;;;;;;19.10;51.00;;;;;;4360514;32;19985;-42
2021/09/04 07:41:11;;;;;;;;;;;19.10;50.20;;;;;;4360327;32;19970;-43
2021/09/04 07:43:38;;;;;;;;;;;19.20;49.80;;;;;;4347121;32;19964;-41
2021/09/04 07:46:04;;;;;;;;;;;19.20;50.20;;;;;;4345324;33;20113;-41
2021/09/04 07:48:30;;;;;;;;;;;19.20;50.40;;;;;;4346079;33;20091;-43
2021/09/04 07:50:56;;;;;;;;;;;19.20;50.40;;;;;;4345132;33;19983;-42
2021/09/04 07:53:23;;;;;;;;;;;19.20;49.90;;;;;;4345266;33;20421;-41
2021/09/04 07:55:49;;;;;;;;;;;19.20;50.00;;;;;;4331275;33;20462;-42
2021/09/04 07:58:15;;;;;;;;;;;19.20;50.00;;;;;;4345503;33;19974;-42
2021/09/04 08:00:41;;;;;;;;;;;19.20;50.10;;;;;;4327949;33;19987;-42
2021/09/04 08:03:07;;;;;;;;;;;19.20;49.70;;;;;;4328196;33;19994;-43
2021/09/04 08:05:34;;;;;;;;;;;19.20;49.70;;;;;;4328254;33;20048;-38
2021/09/04 08:08:00;;;;;;;;;;;19.20;49.40;;;;;;4315935;33;19990;-41
2021/09/04 08:10:26;;;;;;;;;;;19.20;49.50;;;;;;4327952;33;20001;-42
2021/09/04 08:12:52;;;;;;;;;;;19.20;50.10;;;;;;4328001;33;19999;-43
2021/09/04 08:15:18;;;;;;;;;;;19.30;49.80;;;;;;4328003;33;19979;-39
2021/09/04 08:17:44;;;;;;;;;;;19.30;49.60;;;;;;4327781;33;19979;-43
2021/09/04 08:20:11;;;;;;;;;;;19.30;49.50;;;;;;4328015;33;19983;-43
2021/09/04 08:22:37;;;;;;;;;;;19.30;49.30;;;;;;4327636;33;19982;-42
2021/09/04 08:25:04;;;;;;;;;;;19.30;49.30;;;;;;4328051;33;20454;-43
2021/09/04 08:27:30;;;;;;;;;;;19.30;49.20;;;;;;4327860;33;19991;-42
2021/09/04 08:29:56;;;;;;;;;;;19.30;49.00;;;;;;4327609;33;20005;-43
2021/09/04 08:32:22;;;;;;;;;;;19.30;48.70;;;;;;4341233;33;19973;-43
2021/09/04 08:34:48;;;;;;;;;;;19.30;49.00;;;;;;4344396;33;20378;-43
2021/09/04 08:37:15;;;;;;;;;;;19.30;49.20;;;;;;4344562;33;20383;-40
2021/09/04 08:39:41;;;;;;;;;;;19.30;49.30;;;;;;4344889;33;19967;-43
2021/09/04 08:42:07;;;;;;;;;;;19.30;49.50;;;;;;4348557;32;19978;-41
2021/09/04 08:44:33;;;;;;;;;;;19.30;49.60;;;;;;4332917;32;20531;-43
2021/09/04 08:46:59;;;;;;;;;;;19.30;49.30;;;;;;4359307;32;19974;-43
2021/09/04 08:49:27;;;;;;;;;;;19.20;48.40;;;;;;4333039;32;19970;-43
2021/09/04 08:51:54;;;;;;;;;;;19.20;48.70;;;;;;4345981;32;20046;-42
2021/09/04 08:54:20;;;;;;;;;;;19.20;47.60;;;;;;4359806;32;20055;-43
2021/09/04 08:56:48;;;;;;;;;;;19.20;47.60;;;;;;4345753;32;20000;-42
2021/09/04 08:59:14;;;;;;;;;;;19.10;47.60;;;;;;4359673;32;19962;-42
2021/09/04 09:01:44;;;;;;;;;;;19.20;47.50;;;;;;4359579;32;19986;-42
2021/09/04 09:04:14;;;;;;;;;;;19.20;47.30;;;;;;4359232;32;20462;-41
2021/09/04 09:06:40;;;;;;;;;;;19.10;47.60;;;;;;4359407;32;19973;-41
2021/09/04 09:09:25;;;;;;;;;;;19.10;48.30;;;;;;4326604;33;19990;-42
2021/09/04 09:11:56;;;;;;;;;;;19.10;49.10;;;;;;4327176;33;19967;-42
2021/09/04 09:14:24;;;;;;;;;;;19.00;49.50;;;;;;4326996;33;19969;-42
2021/09/04 09:16:54;;;;;;;;;;;19.00;49.70;;;;;;4327190;33;20078;-43
2021/09/04 09:19:37;;;;;;;;;;;18.90;49.40;;;;;;4326712;33;20527;-44
2021/09/04 09:22:16;;;;;;;;;;;18.80;49.00;;;;;;4327320;33;20400;-41
2021/09/04 09:24:42;;;;;;;;;;;18.80;48.90;;;;;;4326638;33;20470;-43
2021/09/04 09:27:08;;;;;;;;;;;18.70;49.20;;;;;;4327365;33;20510;-37
2021/09/04 09:29:35;;;;;;;;;;;18.60;48.30;;;;;;4315097;33;20035;-41
2021/09/04 09:32:04;;;;;;;;;;;18.60;47.70;;;;;;4327026;33;19967;-42
2021/09/04 09:34:31;;;;;;;;;;;18.60;47.70;;;;;;4326541;33;19975;-41
2021/09/04 09:36:59;;;;;;;;;;;18.60;47.80;;;;;;4326838;33;19979;-42
2021/09/04 09:39:32;;;;;;;;;;;18.70;47.50;;;;;;4333792;32;19985;-41
2021/09/04 09:41:58;;;;;;;;;;;18.80;47.40;;;;;;4355634;32;20399;-41
2021/09/04 09:44:26;;;;;;;;;;;19.00;47.40;;;;;;4343681;33;20082;-43
2021/09/04 09:46:59;;;;;;;;;;;19.10;46.70;;;;;;4343830;33;20375;-42
2021/09/04 09:49:30;;;;;;;;;;;19.30;46.40;;;;;;4330201;33;19963;-42
2021/09/04 09:51:58;;;;;;;;;;;19.50;45.80;;;;;;4343851;33;19963;-43
2021/09/04 09:54:26;;;;;;;;;;;19.80;45.00;;;;;;4343773;33;20044;-43
2021/09/04 09:56:54;;;;;;;;;;;20.00;44.30;;;;;;4343740;33;19982;-42
2021/09/04 09:59:20;;;;;;;;;;;20.30;43.40;;;;;;4343644;33;19998;-41
2021/09/04 10:01:47;;;;;;;;;;;20.50;42.90;;;;;;4317959;33;20045;-41
2021/09/04 10:04:13;;;;;;;;;;;20.70;42.80;;;;;;4329967;33;19959;-43
2021/09/04 10:06:39;;;;;;;;;;;20.90;41.10;;;;;;4317926;33;19978;-42
2021/09/04 10:09:05;;;;;;;;;;;21.20;41.30;;;;;;4329979;33;20006;-43
2021/09/04 10:11:32;;;;;;;;;;;21.30;40.80;;;;;;4329983;33;20006;-43
2021/09/04 10:13:58;;;;;;;;;;;21.40;40.20;;;;;;4329734;33;20005;-42
2021/09/04 10:16:24;;;;;;;;;;;21.50;39.80;;;;;;4343068;33;19970;-41
2021/09/04 10:18:50;;;;;;;;;;;21.50;38.80;;;;;;4329366;33;20462;-42
2021/09/04 10:21:16;;;;;;;;;;;21.60;39.30;;;;;;4318039;33;19971;-42
2021/09/04 10:23:50;;;;;;;;;;;21.60;39.90;;;;;;4343124;33;19989;-41
2021/09/04 10:26:27;;;;;;;;;;;21.60;38.80;;;;;;4343347;33;20012;-43
2021/09/04 10:29:16;;;;;;;;;;;21.60;38.90;;;;;;4343625;33;20034;-46
2021/09/04 10:31:43;;;;;;;;;;;21.70;39.30;;;;;;4343324;33;19974;-40
2021/09/04 10:34:13;;;;;;;;;;;21.70;39.00;;;;;;4343351;33;19971;-41
2021/09/04 10:37:19;;;;;;;;;;;21.70;38.30;;;;;;4330072;33;19967;-46
2021/09/04 10:39:54;;;;;;;;;;;21.70;37.50;;;;;;4335230;33;19974;-44
2021/09/04 10:42:30;;;;;;;;;;;21.80;37.60;;;;;;4348539;32;20001;-41
2021/09/04 10:45:04;;;;;;;;;;;21.80;37.80;;;;;;4345098;32;19970;-43
2021/09/04 10:47:45;;;;;;;;;;;21.80;38.00;;;;;;4358103;32;19958;-43
2021/09/04 10:50:14;;;;;;;;;;;21.80;37.60;;;;;;4358343;32;19974;-43
2021/09/04 10:52:46;;;;;;;;;;;21.70;37.60;;;;;;4358596;32;20001;-42
2021/09/04 10:55:34;;;;;;;;;;;21.70;37.90;;;;;;4358398;32;19969;-45
2021/09/04 10:58:04;;;;;;;;;;;21.80;37.90;;;;;;4358167;32;19970;-43
2021/09/04 11:00:42;;;;;;;;;;;21.80;37.70;;;;;;4358145;32;20495;-44
2021/09/04 11:03:09;;;;;;;;;;;21.80;37.80;;;;;;4358212;32;20066;-43
2021/09/04 11:05:57;;;;;;;;;;;22.00;38.30;;;;;;4357916;32;20115;-44
2021/09/04 11:08:27;;;;;;;;;;;22.10;38.00;;;;;;4360634;32;20436;-42
2021/09/04 11:11:26;;;;;;;;;;;22.20;37.40;;;;;;4360883;32;19982;-42
2021/09/04 11:13:54;;;;;;;;;;;22.20;37.10;;;;;;4360981;32;19974;-41
2021/09/04 11:16:39;;;;;;;;;;;22.20;36.70;;;;;;4360681;32;19974;-42
2021/09/04 11:19:18;;;;;;;;;;;22.20;36.50;;;;;;4360576;32;19986;-41
2021/09/04 11:21:59;;;;;;;;;;;22.20;36.30;;;;;;4361100;32;19958;-41
2021/09/04 11:24:28;;;;;;;;;;;22.20;36.60;;;;;;4346444;32;19966;-42
2021/09/04 11:27:03;;;;;;;;;;;22.30;35.10;;;;;;4360489;32;19993;-42
2021/09/04 11:29:35;;;;;;;;;;;22.30;33.00;;;;;;4360867;32;19985;-42
2021/09/04 11:32:02;;;;;;;;;;;22.40;33.00;;;;;;4347218;32;19962;-42
2021/09/04 11:34:53;;;;;;;;;;;22.40;32.80;;;;;;4360704;32;20038;-41
2021/09/04 11:37:25;;;;;;;;;;;22.40;32.70;;;;;;4360438;32;20063;-41
2021/09/04 11:40:11;;;;;;;;;;;22.40;32.90;;;;;;4347008;32;20055;-38
2021/09/04 11:42:42;;;;;;;;;;;22.40;32.40;;;;;;4353654;32;19975;-41
2021/09/04 11:45:10;;;;;;;;;;;22.40;32.90;;;;;;4345786;33;19998;-42
2021/09/04 11:47:37;;;;;;;;;;;22.40;32.90;;;;;;4345463;33;19961;-40
2021/09/04 11:50:08;;;;;;;;;;;22.40;32.40;;;;;;4345552;33;19955;-41
2021/09/04 11:52:36;;;;;;;;;;;22.50;32.40;;;;;;4345634;33;19962;-40
2021/09/04 11:55:23;;;;;;;;;;;22.60;32.40;;;;;;4345729;33;19971;-41
2021/09/04 11:57:53;;;;;;;;;;;22.60;32.40;;;;;;4345443;33;19966;-40
2021/09/04 12:00:22;;;;;;;;;;;22.60;32.70;;;;;;4345519;33;20018;-39
2021/09/04 12:02:55;;;;;;;;;;;22.70;32.90;;;;;;4345238;33;20055;-41
2021/09/04 12:05:25;;;;;;;;;;;22.80;31.70;;;;;;4331590;33;19974;-42
2021/09/04 12:07:55;;;;;;;;;;;22.80;31.50;;;;;;4345244;33;20096;-41
2021/09/04 12:10:27;;;;;;;;;;;22.90;31.30;;;;;;4345077;33;19974;-43
2021/09/04 12:12:58;;;;;;;;;;;22.90;31.10;;;;;;4345196;33;20381;-43
2021/09/04 12:15:25;;;;;;;;;;;23.00;30.40;;;;;;4331792;33;19981;-40
2021/09/04 12:18:11;;;;;;;;;;;23.00;30.30;;;;;;4319177;33;20048;-40
2021/09/04 12:20:44;;;;;;;;;;;23.00;30.00;;;;;;4344584;33;19990;-40
2021/09/04 12:23:20;;;;;;;;;;;23.00;30.10;;;;;;4345103;33;19993;-40
2021/09/04 12:25:48;;;;;;;;;;;23.10;29.90;;;;;;4345340;33;19983;-39
2021/09/04 12:28:24;;;;;;;;;;;23.00;30.00;;;;;;4312947;33;19982;-40
2021/09/04 12:31:01;;;;;;;;;;;23.00;30.40;;;;;;4313176;33;20540;-39
2021/09/04 12:33:30;;;;;;;;;;;23.00;30.40;;;;;;4313219;33;19970;-41
2021/09/04 12:36:02;;;;;;;;;;;23.10;30.50;;;;;;4313424;33;20051;-39
2021/09/04 12:38:32;;;;;;;;;;;23.10;30.00;;;;;;4313175;33;19975;-41
2021/09/04 12:40:59;;;;;;;;;;;23.20;30.30;;;;;;4313426;33;19988;-41
2021/09/04 12:43:26;;;;;;;;;;;23.10;29.30;;;;;;4324218;33;20370;-41
2021/09/04 12:45:59;;;;;;;;;;;23.00;29.40;;;;;;4326798;33;19985;-42
2021/09/04 12:48:32;;;;;;;;;;;23.00;29.60;;;;;;4327229;33;20584;-39
2021/09/04 12:51:11;;;;;;;;;;;22.90;29.80;;;;;;4327450;33;20060;-41
2021/09/04 12:53:37;;;;;;;;;;;22.80;29.70;;;;;;4327730;33;19983;-41
2021/09/04 12:56:03;;;;;;;;;;;22.70;29.30;;;;;;4327478;33;19963;-42
2021/09/04 12:58:30;;;;;;;;;;;22.70;29.20;;;;;;4324227;33;20421;-41
2021/09/04 13:01:08;;;;;;;;;;;22.60;29.30;;;;;;4312572;33;19972;-42
2021/09/04 13:03:34;;;;;;;;;;;22.70;29.20;;;;;;4312561;33;19974;-42
2021/09/04 13:06:01;;;;;;;;;;;22.70;29.30;;;;;;4312466;33;20142;-40
2021/09/04 13:08:27;;;;;;;;;;;22.60;29.30;;;;;;4312649;33;19983;-41
2021/09/04 13:10:53;;;;;;;;;;;22.50;29.50;;;;;;4312691;33;19994;-41
2021/09/04 13:13:19;;;;;;;;;;;22.50;29.70;;;;;;4321444;33;19974;-42
2021/09/04 13:15:45;;;;;;;;;;;22.40;29.90;;;;;;4327993;33;20495;-41
2021/09/04 13:18:12;;;;;;;;;;;22.30;29.90;;;;;;4330335;33;20010;-43
2021/09/04 13:20:38;;;;;;;;;;;22.20;30.20;;;;;;4344168;33;20571;-42
2021/09/04 13:23:04;;;;;;;;;;;22.10;29.90;;;;;;4344421;33;19979;-43
2021/09/04 13:25:30;;;;;;;;;;;22.00;30.10;;;;;;4344106;33;19969;-43
2021/09/04 13:27:56;;;;;;;;;;;21.90;30.70;;;;;;4344031;33;19971;-42
2021/09/04 13:30:22;;;;;;;;;;;21.90;30.70;;;;;;4343477;33;19966;-39
2021/09/04 13:32:49;;;;;;;;;;;21.80;30.70;;;;;;4344548;33;19974;-42
2021/09/04 13:35:15;;;;;;;;;;;21.70;30.60;;;;;;4330585;33;20034;-43
2021/09/04 13:37:41;;;;;;;;;;;21.70;30.80;;;;;;4344165;33;19967;-43
2021/09/04 13:40:07;;;;;;;;;;;21.60;30.90;;;;;;4344013;33;19985;-43
2021/09/04 13:42:34;;;;;;;;;;;21.60;30.90;;;;;;4337499;33;19978;-43
2021/09/04 13:45:00;;;;;;;;;;;21.50;31.00;;;;;;4329033;33;20111;-43
2021/09/04 13:47:26;;;;;;;;;;;21.50;30.90;;;;;;4329009;33;20349;-43
2021/09/04 13:49:52;;;;;;;;;;;21.40;31.10;;;;;;4329131;33;19975;-43
2021/09/04 13:52:19;;;;;;;;;;;21.40;31.40;;;;;;4328856;33;19982;-42
2021/09/04 13:54:45;;;;;;;;;;;21.30;31.10;;;;;;4328999;33;20050;-40
2021/09/04 13:57:11;;;;;;;;;;;21.40;31.00;;;;;;4329185;33;19963;-42
2021/09/04 13:59:37;;;;;;;;;;;21.30;30.40;;;;;;4329012;33;19967;-40
2021/09/04 14:02:03;;;;;;;;;;;21.30;30.30;;;;;;4328950;33;19970;-42
2021/09/04 14:04:29;;;;;;;;;;;21.20;30.90;;;;;;4328815;33;20014;-42
2021/09/04 14:06:56;;;;;;;;;;;21.00;30.90;;;;;;4329041;33;19979;-41
2021/09/04 14:09:22;;;;;;;;;;;20.90;31.10;;;;;;4315064;33;20115;-41
2021/09/04 14:11:48;;;;;;;;;;;20.90;31.60;;;;;;4328693;33;20045;-42
2021/09/04 14:14:14;;;;;;;;;;;20.80;31.30;;;;;;4343498;33;20058;-43
2021/09/04 14:16:40;;;;;;;;;;;20.70;31.10;;;;;;4343528;33;19963;-42
2021/09/04 14:19:06;;;;;;;;;;;20.60;31.10;;;;;;4343667;33;19977;-41
2021/09/04 14:21:33;;;;;;;;;;;20.60;31.10;;;;;;4343317;33;20057;-40